F/V Atalante 3 — FHUX — position and weather

sailwx.info

Track history (hours):
 
Tides and Currents Weather Stations Pressure Air Temp Water Temp Dewpoint Dewpoint Depression Visibility Wind Speed Wind Dir Waves Ship Positions

F/V Atalante 3

Last reported at 2018-Feb-21 17:26 UTC. Time now 2018-Feb-22 09:25 UTC.
Position N 44°40' W 001°09'.

Type: Other ship. MMSI: 228211000.

Date/timePositionNaut miles runAvg speedWind from/ knotsBaromVisibWave heightAir tempDewpointWater temp
2018-Feb-21 17:26N 44°40' W 001°09'0 0.2
2018-Feb-21 17:01N 44°39' W 001°09'0 0.0
2018-Feb-21 16:30N 44°39' W 001°09'0 0.9
2018-Feb-21 16:00N 44°40' W 001°09'4 7.8
2018-Feb-21 15:29N 44°38' W 001°14'4 8.9
2018-Feb-21 15:00N 44°34' W 001°17'2 3.8
2018-Feb-21 14:30N 44°35' W 001°19'3 6.6
2018-Feb-21 14:00N 44°38' W 001°21'4 7.3
2018-Feb-21 13:30N 44°42' W 001°23'4 7.3
2018-Feb-21 13:00N 44°45' W 001°25'4 7.2
2018-Feb-21 12:30N 44°48' W 001°27'4 7.5
2018-Feb-21 12:00N 44°52' W 001°29'  
2018-Feb-15 14:55N 45°30' W 001°15'3 7.2
2018-Feb-15 14:30N 45°31' W 001°12'3 6.7
2018-Feb-15 14:00N 45°33' W 001°08'3 5.2
2018-Feb-15 13:30N 45°35' W 001°05'3 6.8
2018-Feb-15 13:00N 45°37' W 001°01'0 0.4
2018-Feb-15 12:30N 45°37' W 001°02'0 0.1
2018-Feb-15 12:00N 45°37' W 001°02'0 0.0
2018-Feb-15 11:30N 45°37' W 001°02'0 0.0
2018-Feb-13 15:36N 45°37' W 001°02'0 0.9
2018-Feb-13 15:30N 45°37' W 001°02'0 0.0
2018-Feb-13 15:00N 45°37' W 001°02'0 0.0
2018-Feb-13 14:31N 45°37' W 001°02'0 0.0
2018-Feb-13 14:00N 45°37' W 001°02'0 0.0
2018-Feb-13 13:30N 45°37' W 001°02'0 0.9
2018-Feb-13 13:00N 45°37' W 001°02'510.1
2018-Feb-13 12:30N 45°39' W 001°09'6 8.5
2018-Feb-13 11:50N 45°38' W 001°17'  
Track history (hours):
 
Tides and Currents Weather Stations Pressure Air Temp Water Temp Dewpoint Dewpoint Depression Visibility Wind Speed Wind Dir Waves Ship Positions

F/V Atalante 3

Last reported at 2018-Feb-21 17:26 UTC. Time now 2018-Feb-22 09:25 UTC.
Position N 44°40' W 001°09'.

Type: Other ship. MMSI: 228211000.

Date/timePositionNaut miles runAvg speedWind from/ knotsBaromVisibWave heightAir tempDewpointWater temp
2018-Feb-21 17:26N 44°40' W 001°09'0 0.2
2018-Feb-21 17:01N 44°39' W 001°09'0 0.0
2018-Feb-21 16:30N 44°39' W 001°09'0 0.9
2018-Feb-21 16:00N 44°40' W 001°09'4 7.8
2018-Feb-21 15:29N 44°38' W 001°14'4 8.9
2018-Feb-21 15:00N 44°34' W 001°17'2 3.8
2018-Feb-21 14:30N 44°35' W 001°19'3 6.6
2018-Feb-21 14:00N 44°38' W 001°21'4 7.3
2018-Feb-21 13:30N 44°42' W 001°23'4 7.3
2018-Feb-21 13:00N 44°45' W 001°25'4 7.2
2018-Feb-21 12:30N 44°48' W 001°27'4 7.5
2018-Feb-21 12:00N 44°52' W 001°29'  
2018-Feb-15 14:55N 45°30' W 001°15'3 7.2
2018-Feb-15 14:30N 45°31' W 001°12'3 6.7
2018-Feb-15 14:00N 45°33' W 001°08'3 5.2
2018-Feb-15 13:30N 45°35' W 001°05'3 6.8
2018-Feb-15 13:00N 45°37' W 001°01'0 0.4
2018-Feb-15 12:30N 45°37' W 001°02'0 0.1
2018-Feb-15 12:00N 45°37' W 001°02'0 0.0
2018-Feb-15 11:30N 45°37' W 001°02'0 0.0
2018-Feb-13 15:36N 45°37' W 001°02'0 0.9
2018-Feb-13 15:30N 45°37' W 001°02'0 0.0
2018-Feb-13 15:00N 45°37' W 001°02'0 0.0
2018-Feb-13 14:31N 45°37' W 001°02'0 0.0
2018-Feb-13 14:00N 45°37' W 001°02'0 0.0
2018-Feb-13 13:30N 45°37' W 001°02'0 0.9
2018-Feb-13 13:00N 45°37' W 001°02'510.1
2018-Feb-13 12:30N 45°39' W 001°09'6 8.5
2018-Feb-13 11:50N 45°38' W 001°17'  

Dump ship's entire track history